sensor_id;sensor_type;location;lat;lon;timestamp;P1;durP1;ratioP1;P2;durP2;ratioP2
10275;SDS011;5183;51.190;6.820;2023-02-28T00:01:28;9.40;;;6.73;;
10275;SDS011;5183;51.190;6.820;2023-02-28T00:03:56;9.37;;;6.90;;
10275;SDS011;5183;51.190;6.820;2023-02-28T00:06:23;7.67;;;6.60;;
10275;SDS011;5183;51.190;6.820;2023-02-28T00:08:50;8.10;;;7.30;;
10275;SDS011;5183;51.190;6.820;2023-02-28T00:11:17;8.07;;;6.67;;
10275;SDS011;5183;51.190;6.820;2023-02-28T00:13:44;7.30;;;6.60;;
10275;SDS011;5183;51.190;6.820;2023-02-28T00:16:15;7.43;;;6.17;;
10275;SDS011;5183;51.190;6.820;2023-02-28T00:18:44;9.57;;;6.30;;
10275;SDS011;5183;51.190;6.820;2023-02-28T00:21:12;8.23;;;6.57;;
10275;SDS011;5183;51.190;6.820;2023-02-28T00:23:39;7.63;;;6.43;;
10275;SDS011;5183;51.190;6.820;2023-02-28T00:26:06;7.60;;;6.27;;
10275;SDS011;5183;51.190;6.820;2023-02-28T00:28:33;7.60;;;6.37;;
10275;SDS011;5183;51.190;6.820;2023-02-28T00:31:00;9.60;;;6.90;;
10275;SDS011;5183;51.190;6.820;2023-02-28T00:33:28;8.17;;;6.43;;
10275;SDS011;5183;51.190;6.820;2023-02-28T00:36:02;10.30;;;6.87;;
10275;SDS011;5183;51.190;6.820;2023-02-28T00:38:31;8.00;;;6.50;;
10275;SDS011;5183;51.190;6.820;2023-02-28T00:40:57;7.20;;;6.17;;
10275;SDS011;5183;51.190;6.820;2023-02-28T00:43:29;10.00;;;6.43;;
10275;SDS011;5183;51.190;6.820;2023-02-28T00:45:57;8.97;;;6.90;;
10275;SDS011;5183;51.190;6.820;2023-02-28T00:48:23;7.73;;;6.90;;
10275;SDS011;5183;51.190;6.820;2023-02-28T00:50:52;8.53;;;7.00;;
10275;SDS011;5183;51.190;6.820;2023-02-28T00:53:19;8.27;;;6.40;;
10275;SDS011;5183;51.190;6.820;2023-02-28T00:55:47;9.07;;;6.60;;
10275;SDS011;5183;51.190;6.820;2023-02-28T00:58:14;8.43;;;6.53;;
10275;SDS011;5183;51.190;6.820;2023-02-28T01:00:41;9.70;;;6.70;;
10275;SDS011;5183;51.190;6.820;2023-02-28T01:03:07;8.93;;;6.87;;
10275;SDS011;5183;51.190;6.820;2023-02-28T01:05:34;7.80;;;6.47;;
10275;SDS011;5183;51.190;6.820;2023-02-28T01:08:02;9.40;;;7.00;;
10275;SDS011;5183;51.190;6.820;2023-02-28T01:10:30;8.97;;;7.37;;
10275;SDS011;5183;51.190;6.820;2023-02-28T01:12:57;10.07;;;6.73;;
10275;SDS011;5183;51.190;6.820;2023-02-28T01:15:24;8.00;;;6.83;;
10275;SDS011;5183;51.190;6.820;2023-02-28T01:17:51;12.37;;;7.33;;
10275;SDS011;5183;51.190;6.820;2023-02-28T01:20:17;8.30;;;6.70;;
10275;SDS011;5183;51.190;6.820;2023-02-28T01:22:44;9.23;;;6.77;;
10275;SDS011;5183;51.190;6.820;2023-02-28T01:25:14;9.47;;;6.90;;
10275;SDS011;5183;51.190;6.820;2023-02-28T01:27:40;9.63;;;6.90;;
10275;SDS011;5183;51.190;6.820;2023-02-28T01:30:08;10.07;;;6.90;;
10275;SDS011;5183;51.190;6.820;2023-02-28T01:32:36;9.73;;;7.27;;
10275;SDS011;5183;51.190;6.820;2023-02-28T01:35:03;9.30;;;7.30;;
10275;SDS011;5183;51.190;6.820;2023-02-28T01:37:30;9.80;;;7.27;;
10275;SDS011;5183;51.190;6.820;2023-02-28T01:39:57;9.13;;;6.73;;
10275;SDS011;5183;51.190;6.820;2023-02-28T01:42:25;9.10;;;7.47;;
10275;SDS011;5183;51.190;6.820;2023-02-28T01:45:03;10.07;;;6.87;;
10275;SDS011;5183;51.190;6.820;2023-02-28T01:47:41;10.13;;;8.00;;
10275;SDS011;5183;51.190;6.820;2023-02-28T01:50:10;9.80;;;7.63;;
10275;SDS011;5183;51.190;6.820;2023-02-28T01:52:40;10.70;;;8.40;;
10275;SDS011;5183;51.190;6.820;2023-02-28T01:55:09;10.63;;;7.97;;
10275;SDS011;5183;51.190;6.820;2023-02-28T01:57:40;10.47;;;7.60;;
10275;SDS011;5183;51.190;6.820;2023-02-28T02:00:09;12.77;;;8.37;;
10275;SDS011;5183;51.190;6.820;2023-02-28T02:02:40;10.00;;;8.20;;
10275;SDS011;5183;51.190;6.820;2023-02-28T02:05:09;10.17;;;8.20;;
10275;SDS011;5183;51.190;6.820;2023-02-28T02:07:38;10.43;;;8.00;;
10275;SDS011;5183;51.190;6.820;2023-02-28T02:10:10;10.87;;;8.23;;
10275;SDS011;5183;51.190;6.820;2023-02-28T02:12:48;12.57;;;7.80;;
10275;SDS011;5183;51.190;6.820;2023-02-28T02:15:29;9.07;;;7.93;;
10275;SDS011;5183;51.190;6.820;2023-02-28T02:18:01;8.77;;;7.70;;
10275;SDS011;5183;51.190;6.820;2023-02-28T02:20:41;10.53;;;7.57;;
10275;SDS011;5183;51.190;6.820;2023-02-28T02:23:33;11.03;;;8.60;;
10275;SDS011;5183;51.190;6.820;2023-02-28T02:26:33;11.73;;;8.20;;
10275;SDS011;5183;51.190;6.820;2023-02-28T02:29:25;10.63;;;8.37;;
10275;SDS011;5183;51.190;6.820;2023-02-28T02:35:45;10.43;;;7.73;;
10275;SDS011;5183;51.190;6.820;2023-02-28T02:38:17;9.87;;;8.13;;
10275;SDS011;5183;51.190;6.820;2023-02-28T02:40:50;11.57;;;8.43;;
10275;SDS011;5183;51.190;6.820;2023-02-28T02:43:22;9.10;;;8.10;;
10275;SDS011;5183;51.190;6.820;2023-02-28T02:45:56;9.60;;;7.57;;
10275;SDS011;5183;51.190;6.820;2023-02-28T02:48:29;10.33;;;8.93;;
10275;SDS011;5183;51.190;6.820;2023-02-28T02:51:01;10.63;;;8.63;;
10275;SDS011;5183;51.190;6.820;2023-02-28T02:53:37;10.87;;;9.00;;
10275;SDS011;5183;51.190;6.820;2023-02-28T02:56:07;11.70;;;8.73;;
10275;SDS011;5183;51.190;6.820;2023-02-28T02:58:36;12.00;;;8.27;;
10275;SDS011;5183;51.190;6.820;2023-02-28T03:01:07;9.23;;;8.03;;
10275;SDS011;5183;51.190;6.820;2023-02-28T03:03:36;11.07;;;7.97;;
10275;SDS011;5183;51.190;6.820;2023-02-28T03:06:05;10.53;;;8.73;;
10275;SDS011;5183;51.190;6.820;2023-02-28T03:08:34;11.10;;;9.30;;
10275;SDS011;5183;51.190;6.820;2023-02-28T03:11:03;12.07;;;9.03;;
10275;SDS011;5183;51.190;6.820;2023-02-28T03:13:39;11.37;;;8.70;;
10275;SDS011;5183;51.190;6.820;2023-02-28T03:16:22;11.50;;;9.20;;
10275;SDS011;5183;51.190;6.820;2023-02-28T03:19:03;12.67;;;9.03;;
10275;SDS011;5183;51.190;6.820;2023-02-28T03:21:46;11.50;;;8.83;;
10275;SDS011;5183;51.190;6.820;2023-02-28T03:24:21;12.20;;;9.00;;
10275;SDS011;5183;51.190;6.820;2023-02-28T03:27:01;11.90;;;10.10;;
10275;SDS011;5183;51.190;6.820;2023-02-28T03:29:34;11.03;;;9.60;;
10275;SDS011;5183;51.190;6.820;2023-02-28T03:32:05;12.33;;;9.13;;
10275;SDS011;5183;51.190;6.820;2023-02-28T03:34:39;11.47;;;9.20;;
10275;SDS011;5183;51.190;6.820;2023-02-28T03:37:14;12.37;;;9.60;;
10275;SDS011;5183;51.190;6.820;2023-02-28T03:39:46;11.47;;;9.50;;
10275;SDS011;5183;51.190;6.820;2023-02-28T03:42:18;10.20;;;9.00;;
10275;SDS011;5183;51.190;6.820;2023-02-28T03:44:47;10.47;;;9.00;;
10275;SDS011;5183;51.190;6.820;2023-02-28T03:47:17;12.67;;;8.93;;
10275;SDS011;5183;51.190;6.820;2023-02-28T03:49:50;13.70;;;8.90;;
10275;SDS011;5183;51.190;6.820;2023-02-28T03:52:24;10.10;;;8.50;;
10275;SDS011;5183;51.190;6.820;2023-02-28T03:54:56;10.30;;;8.57;;
10275;SDS011;5183;51.190;6.820;2023-02-28T03:57:32;10.40;;;8.80;;
10275;SDS011;5183;51.190;6.820;2023-02-28T04:00:06;11.57;;;8.97;;
10275;SDS011;5183;51.190;6.820;2023-02-28T04:02:37;11.60;;;9.00;;
10275;SDS011;5183;51.190;6.820;2023-02-28T04:05:04;10.23;;;8.07;;
10275;SDS011;5183;51.190;6.820;2023-02-28T04:07:33;10.23;;;8.20;;
10275;SDS011;5183;51.190;6.820;2023-02-28T04:10:00;10.77;;;8.23;;
10275;SDS011;5183;51.190;6.820;2023-02-28T04:12:27;9.73;;;8.27;;
10275;SDS011;5183;51.190;6.820;2023-02-28T04:14:54;9.50;;;8.47;;
10275;SDS011;5183;51.190;6.820;2023-02-28T04:17:21;13.23;;;9.13;;
10275;SDS011;5183;51.190;6.820;2023-02-28T04:19:47;10.63;;;8.10;;
10275;SDS011;5183;51.190;6.820;2023-02-28T04:22:15;10.33;;;8.00;;
10275;SDS011;5183;51.190;6.820;2023-02-28T04:24:44;13.77;;;8.53;;
10275;SDS011;5183;51.190;6.820;2023-02-28T04:27:11;12.40;;;8.50;;
10275;SDS011;5183;51.190;6.820;2023-02-28T04:29:37;11.13;;;8.03;;
10275;SDS011;5183;51.190;6.820;2023-02-28T04:32:04;8.73;;;7.80;;
10275;SDS011;5183;51.190;6.820;2023-02-28T04:34:31;8.90;;;7.67;;
10275;SDS011;5183;51.190;6.820;2023-02-28T04:36:58;9.03;;;8.13;;
10275;SDS011;5183;51.190;6.820;2023-02-28T04:39:25;7.97;;;7.10;;
10275;SDS011;5183;51.190;6.820;2023-02-28T04:41:53;9.40;;;7.33;;
10275;SDS011;5183;51.190;6.820;2023-02-28T04:44:21;10.07;;;7.37;;
10275;SDS011;5183;51.190;6.820;2023-02-28T04:46:48;9.00;;;7.93;;
10275;SDS011;5183;51.190;6.820;2023-02-28T04:49:15;9.70;;;6.97;;
10275;SDS011;5183;51.190;6.820;2023-02-28T04:51:42;8.13;;;7.33;;
10275;SDS011;5183;51.190;6.820;2023-02-28T04:54:09;10.50;;;7.67;;
10275;SDS011;5183;51.190;6.820;2023-02-28T04:56:36;9.13;;;7.60;;
10275;SDS011;5183;51.190;6.820;2023-02-28T04:59:04;9.80;;;7.40;;
10275;SDS011;5183;51.190;6.820;2023-02-28T05:01:31;10.07;;;7.53;;
10275;SDS011;5183;51.190;6.820;2023-02-28T05:04:00;13.87;;;10.17;;
10275;SDS011;5183;51.190;6.820;2023-02-28T05:06:29;10.83;;;8.40;;
10275;SDS011;5183;51.190;6.820;2023-02-28T05:08:58;13.40;;;9.80;;
10275;SDS011;5183;51.190;6.820;2023-02-28T05:11:26;11.87;;;8.67;;
10275;SDS011;5183;51.190;6.820;2023-02-28T05:13:58;10.93;;;8.50;;
10275;SDS011;5183;51.190;6.820;2023-02-28T05:16:26;10.07;;;8.37;;
10275;SDS011;5183;51.190;6.820;2023-02-28T05:18:53;11.43;;;9.10;;
10275;SDS011;5183;51.190;6.820;2023-02-28T05:21:22;8.80;;;7.80;;
10275;SDS011;5183;51.190;6.820;2023-02-28T05:23:51;9.20;;;8.30;;
10275;SDS011;5183;51.190;6.820;2023-02-28T05:26:19;10.77;;;8.90;;
10275;SDS011;5183;51.190;6.820;2023-02-28T05:28:46;11.53;;;9.03;;
10275;SDS011;5183;51.190;6.820;2023-02-28T05:31:13;10.07;;;8.23;;
10275;SDS011;5183;51.190;6.820;2023-02-28T05:33:41;10.00;;;8.13;;
10275;SDS011;5183;51.190;6.820;2023-02-28T05:36:08;8.83;;;7.93;;
10275;SDS011;5183;51.190;6.820;2023-02-28T05:38:35;7.77;;;6.90;;
10275;SDS011;5183;51.190;6.820;2023-02-28T05:41:04;7.83;;;7.03;;
10275;SDS011;5183;51.190;6.820;2023-02-28T05:43:32;8.53;;;7.40;;
10275;SDS011;5183;51.190;6.820;2023-02-28T05:45:59;10.07;;;7.27;;
10275;SDS011;5183;51.190;6.820;2023-02-28T05:48:28;9.37;;;6.83;;
10275;SDS011;5183;51.190;6.820;2023-02-28T05:50:56;9.80;;;7.13;;
10275;SDS011;5183;51.190;6.820;2023-02-28T05:53:23;8.00;;;7.20;;
10275;SDS011;5183;51.190;6.820;2023-02-28T05:55:51;8.40;;;7.40;;
10275;SDS011;5183;51.190;6.820;2023-02-28T05:58:18;8.87;;;7.90;;
10275;SDS011;5183;51.190;6.820;2023-02-28T06:00:44;10.63;;;7.60;;
10275;SDS011;5183;51.190;6.820;2023-02-28T06:03:11;11.17;;;7.80;;
10275;SDS011;5183;51.190;6.820;2023-02-28T06:05:38;10.53;;;8.10;;
10275;SDS011;5183;51.190;6.820;2023-02-28T06:08:06;14.13;;;10.10;;
10275;SDS011;5183;51.190;6.820;2023-02-28T06:10:33;10.10;;;7.63;;
10275;SDS011;5183;51.190;6.820;2023-02-28T06:13:00;14.15;;;11.05;;
10275;SDS011;5183;51.190;6.820;2023-02-28T06:15:27;17.03;;;10.20;;
10275;SDS011;5183;51.190;6.820;2023-02-28T06:17:54;8.70;;;7.30;;
10275;SDS011;5183;51.190;6.820;2023-02-28T06:20:22;9.17;;;7.40;;
10275;SDS011;5183;51.190;6.820;2023-02-28T06:22:51;12.07;;;8.20;;
10275;SDS011;5183;51.190;6.820;2023-02-28T06:25:20;8.23;;;6.93;;
10275;SDS011;5183;51.190;6.820;2023-02-28T06:27:47;11.00;;;7.13;;
10275;SDS011;5183;51.190;6.820;2023-02-28T06:30:14;7.10;;;6.33;;
10275;SDS011;5183;51.190;6.820;2023-02-28T06:32:41;9.33;;;6.40;;
10275;SDS011;5183;51.190;6.820;2023-02-28T06:35:08;6.90;;;6.30;;
10275;SDS011;5183;51.190;6.820;2023-02-28T06:37:35;7.10;;;6.40;;
10275;SDS011;5183;51.190;6.820;2023-02-28T06:40:02;7.17;;;6.40;;
10275;SDS011;5183;51.190;6.820;2023-02-28T06:42:33;8.47;;;6.23;;
10275;SDS011;5183;51.190;6.820;2023-02-28T06:45:00;8.10;;;6.27;;
10275;SDS011;5183;51.190;6.820;2023-02-28T06:47:34;7.33;;;6.60;;
10275;SDS011;5183;51.190;6.820;2023-02-28T06:50:01;6.60;;;6.00;;
10275;SDS011;5183;51.190;6.820;2023-02-28T06:52:28;9.17;;;6.20;;
10275;SDS011;5183;51.190;6.820;2023-02-28T06:54:54;7.70;;;6.27;;
10275;SDS011;5183;51.190;6.820;2023-02-28T06:57:26;7.50;;;6.70;;
10275;SDS011;5183;51.190;6.820;2023-02-28T06:59:57;8.03;;;6.80;;
10275;SDS011;5183;51.190;6.820;2023-02-28T07:02:24;7.93;;;7.13;;
10275;SDS011;5183;51.190;6.820;2023-02-28T07:04:51;11.83;;;6.80;;
10275;SDS011;5183;51.190;6.820;2023-02-28T07:07:17;8.40;;;7.50;;
10275;SDS011;5183;51.190;6.820;2023-02-28T07:09:44;7.90;;;6.90;;
10275;SDS011;5183;51.190;6.820;2023-02-28T07:12:11;8.23;;;7.33;;
10275;SDS011;5183;51.190;6.820;2023-02-28T07:14:38;6.67;;;5.97;;
10275;SDS011;5183;51.190;6.820;2023-02-28T07:17:07;6.67;;;6.00;;
10275;SDS011;5183;51.190;6.820;2023-02-28T07:19:36;6.63;;;5.88;;
10275;SDS011;5183;51.190;6.820;2023-02-28T07:22:04;6.33;;;5.73;;
10275;SDS011;5183;51.190;6.820;2023-02-28T07:24:31;6.37;;;5.77;;
10275;SDS011;5183;51.190;6.820;2023-02-28T07:26:58;6.43;;;5.67;;
10275;SDS011;5183;51.190;6.820;2023-02-28T07:29:26;6.90;;;5.47;;
10275;SDS011;5183;51.190;6.820;2023-02-28T07:31:53;6.30;;;5.70;;
10275;SDS011;5183;51.190;6.820;2023-02-28T07:34:21;7.73;;;5.60;;
10275;SDS011;5183;51.190;6.820;2023-02-28T07:36:48;5.63;;;5.13;;
10275;SDS011;5183;51.190;6.820;2023-02-28T07:39:18;6.37;;;5.50;;
10275;SDS011;5183;51.190;6.820;2023-02-28T07:41:45;6.00;;;5.20;;
10275;SDS011;5183;51.190;6.820;2023-02-28T07:44:12;6.32;;;5.50;;
10275;SDS011;5183;51.190;6.820;2023-02-28T07:46:39;6.27;;;5.27;;
10275;SDS011;5183;51.190;6.820;2023-02-28T07:49:05;8.57;;;5.67;;
10275;SDS011;5183;51.190;6.820;2023-02-28T07:51:34;5.77;;;5.13;;
10275;SDS011;5183;51.190;6.820;2023-02-28T07:54:00;6.30;;;5.40;;
10275;SDS011;5183;51.190;6.820;2023-02-28T07:56:27;9.10;;;6.70;;
10275;SDS011;5183;51.190;6.820;2023-02-28T07:58:54;6.83;;;5.60;;
10275;SDS011;5183;51.190;6.820;2023-02-28T08:01:21;6.63;;;5.43;;
10275;SDS011;5183;51.190;6.820;2023-02-28T08:03:48;5.60;;;4.70;;
10275;SDS011;5183;51.190;6.820;2023-02-28T08:06:16;4.80;;;4.30;;
10275;SDS011;5183;51.190;6.820;2023-02-28T08:08:45;5.93;;;4.50;;
10275;SDS011;5183;51.190;6.820;2023-02-28T08:11:13;4.50;;;4.10;;
10275;SDS011;5183;51.190;6.820;2023-02-28T08:13:40;4.43;;;4.00;;
10275;SDS011;5183;51.190;6.820;2023-02-28T08:16:09;6.03;;;4.47;;
10275;SDS011;5183;51.190;6.820;2023-02-28T08:18:36;4.80;;;4.30;;
10275;SDS011;5183;51.190;6.820;2023-02-28T08:21:05;5.47;;;4.33;;
10275;SDS011;5183;51.190;6.820;2023-02-28T08:23:32;4.83;;;4.33;;
10275;SDS011;5183;51.190;6.820;2023-02-28T08:26:01;5.73;;;4.20;;
10275;SDS011;5183;51.190;6.820;2023-02-28T08:28:29;8.00;;;4.63;;
10275;SDS011;5183;51.190;6.820;2023-02-28T08:30:56;4.17;;;3.53;;
10275;SDS011;5183;51.190;6.820;2023-02-28T08:33:23;5.20;;;3.80;;
10275;SDS011;5183;51.190;6.820;2023-02-28T08:35:52;4.90;;;4.13;;
10275;SDS011;5183;51.190;6.820;2023-02-28T08:38:19;5.07;;;4.10;;
10275;SDS011;5183;51.190;6.820;2023-02-28T08:40:46;4.40;;;3.47;;
10275;SDS011;5183;51.190;6.820;2023-02-28T08:43:14;4.93;;;3.73;;
10275;SDS011;5183;51.190;6.820;2023-02-28T08:45:41;4.23;;;3.87;;
10275;SDS011;5183;51.190;6.820;2023-02-28T08:48:08;4.73;;;3.47;;
10275;SDS011;5183;51.190;6.820;2023-02-28T08:50:35;4.83;;;4.07;;
10275;SDS011;5183;51.190;6.820;2023-02-28T08:53:02;4.30;;;3.90;;
10275;SDS011;5183;51.190;6.820;2023-02-28T08:55:29;4.20;;;3.50;;
10275;SDS011;5183;51.190;6.820;2023-02-28T08:57:55;6.93;;;4.17;;
10275;SDS011;5183;51.190;6.820;2023-02-28T09:00:24;6.43;;;5.03;;
10275;SDS011;5183;51.190;6.820;2023-02-28T09:02:51;7.27;;;5.90;;
10275;SDS011;5183;51.190;6.820;2023-02-28T09:05:19;4.50;;;4.00;;
10275;SDS011;5183;51.190;6.820;2023-02-28T09:07:46;6.37;;;4.60;;
10275;SDS011;5183;51.190;6.820;2023-02-28T09:10:13;3.97;;;3.57;;
10275;SDS011;5183;51.190;6.820;2023-02-28T09:12:40;4.75;;;3.63;;
10275;SDS011;5183;51.190;6.820;2023-02-28T09:15:07;5.67;;;3.47;;
10275;SDS011;5183;51.190;6.820;2023-02-28T09:17:36;3.70;;;3.40;;
10275;SDS011;5183;51.190;6.820;2023-02-28T09:20:03;4.43;;;3.23;;
10275;SDS011;5183;51.190;6.820;2023-02-28T09:22:30;3.42;;;2.78;;
10275;SDS011;5183;51.190;6.820;2023-02-28T09:24:57;4.30;;;2.60;;
10275;SDS011;5183;51.190;6.820;2023-02-28T09:27:24;2.70;;;2.50;;
10275;SDS011;5183;51.190;6.820;2023-02-28T09:29:51;5.13;;;2.53;;
10275;SDS011;5183;51.190;6.820;2023-02-28T09:32:18;4.03;;;2.90;;
10275;SDS011;5183;51.190;6.820;2023-02-28T09:34:46;3.07;;;2.70;;
10275;SDS011;5183;51.190;6.820;2023-02-28T09:37:13;2.73;;;2.53;;
10275;SDS011;5183;51.190;6.820;2023-02-28T09:39:39;3.47;;;2.97;;
10275;SDS011;5183;51.190;6.820;2023-02-28T09:42:11;3.03;;;2.73;;
10275;SDS011;5183;51.190;6.820;2023-02-28T09:44:46;3.20;;;2.90;;
10275;SDS011;5183;51.190;6.820;2023-02-28T09:47:16;3.28;;;2.60;;
10275;SDS011;5183;51.190;6.820;2023-02-28T09:49:53;2.77;;;2.57;;
10275;SDS011;5183;51.190;6.820;2023-02-28T09:52:22;2.70;;;2.50;;
10275;SDS011;5183;51.190;6.820;2023-02-28T09:54:53;3.47;;;2.60;;
10275;SDS011;5183;51.190;6.820;2023-02-28T09:57:23;2.90;;;2.60;;
10275;SDS011;5183;51.190;6.820;2023-02-28T10:00:02;4.30;;;3.20;;
10275;SDS011;5183;51.190;6.820;2023-02-28T10:02:45;6.77;;;3.93;;
10275;SDS011;5183;51.190;6.820;2023-02-28T10:05:21;3.42;;;2.45;;
10275;SDS011;5183;51.190;6.820;2023-02-28T10:07:53;3.70;;;2.50;;
10275;SDS011;5183;51.190;6.820;2023-02-28T10:10:31;4.00;;;2.90;;
10275;SDS011;5183;51.190;6.820;2023-02-28T10:13:04;3.17;;;2.87;;
10275;SDS011;5183;51.190;6.820;2023-02-28T10:15:33;2.50;;;2.30;;
10275;SDS011;5183;51.190;6.820;2023-02-28T10:18:02;3.30;;;2.37;;
10275;SDS011;5183;51.190;6.820;2023-02-28T10:20:33;4.97;;;2.20;;
10275;SDS011;5183;51.190;6.820;2023-02-28T10:23:03;4.73;;;2.40;;
10275;SDS011;5183;51.190;6.820;2023-02-28T10:25:36;2.60;;;2.27;;
10275;SDS011;5183;51.190;6.820;2023-02-28T10:28:08;2.57;;;2.37;;
10275;SDS011;5183;51.190;6.820;2023-02-28T10:30:37;2.20;;;2.00;;
10275;SDS011;5183;51.190;6.820;2023-02-28T10:33:10;3.07;;;2.30;;
10275;SDS011;5183;51.190;6.820;2023-02-28T10:35:46;4.33;;;3.47;;
10275;SDS011;5183;51.190;6.820;2023-02-28T10:38:15;5.87;;;5.00;;
10275;SDS011;5183;51.190;6.820;2023-02-28T10:40:43;2.50;;;2.30;;
10275;SDS011;5183;51.190;6.820;2023-02-28T10:43:21;3.17;;;2.70;;
10275;SDS011;5183;51.190;6.820;2023-02-28T10:45:53;3.70;;;2.83;;
10275;SDS011;5183;51.190;6.820;2023-02-28T10:48:27;3.53;;;2.40;;
10275;SDS011;5183;51.190;6.820;2023-02-28T10:51:02;3.07;;;2.50;;
10275;SDS011;5183;51.190;6.820;2023-02-28T10:53:33;4.37;;;2.60;;
10275;SDS011;5183;51.190;6.820;2023-02-28T10:56:05;3.13;;;2.43;;
10275;SDS011;5183;51.190;6.820;2023-02-28T10:58:50;2.73;;;2.40;;
10275;SDS011;5183;51.190;6.820;2023-02-28T11:01:19;2.53;;;2.33;;
10275;SDS011;5183;51.190;6.820;2023-02-28T11:03:47;3.73;;;2.53;;
10275;SDS011;5183;51.190;6.820;2023-02-28T11:06:17;3.10;;;2.60;;
10275;SDS011;5183;51.190;6.820;2023-02-28T11:08:48;2.83;;;2.30;;
10275;SDS011;5183;51.190;6.820;2023-02-28T11:11:17;4.53;;;2.47;;
10275;SDS011;5183;51.190;6.820;2023-02-28T11:13:46;2.90;;;2.50;;
10275;SDS011;5183;51.190;6.820;2023-02-28T11:16:16;3.17;;;2.60;;
10275;SDS011;5183;51.190;6.820;2023-02-28T11:18:44;2.80;;;2.60;;
10275;SDS011;5183;51.190;6.820;2023-02-28T11:21:21;3.15;;;2.63;;
10275;SDS011;5183;51.190;6.820;2023-02-28T11:23:51;3.33;;;2.78;;
10275;SDS011;5183;51.190;6.820;2023-02-28T11:26:35;2.75;;;2.50;;
10275;SDS011;5183;51.190;6.820;2023-02-28T11:29:08;2.40;;;2.20;;
10275;SDS011;5183;51.190;6.820;2023-02-28T11:31:38;3.30;;;2.87;;
10275;SDS011;5183;51.190;6.820;2023-02-28T11:34:21;3.57;;;2.40;;
10275;SDS011;5183;51.190;6.820;2023-02-28T11:36:52;3.10;;;2.80;;
10275;SDS011;5183;51.190;6.820;2023-02-28T11:39:21;3.43;;;3.13;;
10275;SDS011;5183;51.190;6.820;2023-02-28T11:41:53;7.50;;;4.67;;
10275;SDS011;5183;51.190;6.820;2023-02-28T11:44:37;5.90;;;3.90;;
10275;SDS011;5183;51.190;6.820;2023-02-28T11:47:23;3.30;;;3.00;;
10275;SDS011;5183;51.190;6.820;2023-02-28T11:50:03;3.57;;;2.70;;
10275;SDS011;5183;51.190;6.820;2023-02-28T11:52:43;2.63;;;2.40;;
10275;SDS011;5183;51.190;6.820;2023-02-28T11:55:16;2.97;;;2.73;;
10275;SDS011;5183;51.190;6.820;2023-02-28T11:57:52;2.60;;;2.40;;
10275;SDS011;5183;51.190;6.820;2023-02-28T12:00:41;5.67;;;3.07;;
10275;SDS011;5183;51.190;6.820;2023-02-28T12:03:29;3.63;;;2.97;;
10275;SDS011;5183;51.190;6.820;2023-02-28T12:06:06;3.17;;;2.83;;
10275;SDS011;5183;51.190;6.820;2023-02-28T12:08:47;3.20;;;2.90;;
10275;SDS011;5183;51.190;6.820;2023-02-28T12:11:25;3.83;;;2.90;;
10275;SDS011;5183;51.190;6.820;2023-02-28T12:14:14;3.27;;;2.73;;
10275;SDS011;5183;51.190;6.820;2023-02-28T12:16:57;2.90;;;2.60;;
10275;SDS011;5183;51.190;6.820;2023-02-28T12:19:33;4.20;;;2.57;;
10275;SDS011;5183;51.190;6.820;2023-02-28T12:22:09;3.27;;;2.97;;
10275;SDS011;5183;51.190;6.820;2023-02-28T12:24:57;3.00;;;2.70;;
10275;SDS011;5183;51.190;6.820;2023-02-28T12:27:51;5.40;;;3.17;;
10275;SDS011;5183;51.190;6.820;2023-02-28T12:30:19;10.03;;;4.40;;
10275;SDS011;5183;51.190;6.820;2023-02-28T12:32:50;10.13;;;5.90;;
10275;SDS011;5183;51.190;6.820;2023-02-28T12:35:23;3.37;;;3.00;;
10275;SDS011;5183;51.190;6.820;2023-02-28T12:37:54;5.13;;;3.50;;
10275;SDS011;5183;51.190;6.820;2023-02-28T12:40:27;3.37;;;3.07;;
10275;SDS011;5183;51.190;6.820;2023-02-28T12:43:11;6.83;;;3.50;;
10275;SDS011;5183;51.190;6.820;2023-02-28T12:45:42;4.97;;;3.13;;
10275;SDS011;5183;51.190;6.820;2023-02-28T12:48:14;4.40;;;3.10;;
10275;SDS011;5183;51.190;6.820;2023-02-28T12:50:46;4.00;;;2.97;;
10275;SDS011;5183;51.190;6.820;2023-02-28T12:53:15;3.10;;;2.80;;
10275;SDS011;5183;51.190;6.820;2023-02-28T12:55:50;3.80;;;2.97;;
10275;SDS011;5183;51.190;6.820;2023-02-28T12:58:26;5.07;;;3.30;;
10275;SDS011;5183;51.190;6.820;2023-02-28T13:01:06;3.20;;;2.90;;
10275;SDS011;5183;51.190;6.820;2023-02-28T13:04:05;3.33;;;3.00;;
10275;SDS011;5183;51.190;6.820;2023-02-28T13:07:00;4.10;;;3.17;;
10275;SDS011;5183;51.190;6.820;2023-02-28T13:09:52;3.33;;;2.90;;
10275;SDS011;5183;51.190;6.820;2023-02-28T13:12:21;4.00;;;3.10;;
10275;SDS011;5183;51.190;6.820;2023-02-28T13:14:49;3.57;;;2.93;;
10275;SDS011;5183;51.190;6.820;2023-02-28T13:17:17;3.40;;;2.50;;
10275;SDS011;5183;51.190;6.820;2023-02-28T13:19:46;3.70;;;3.10;;
10275;SDS011;5183;51.190;6.820;2023-02-28T13:22:36;3.80;;;3.00;;
10275;SDS011;5183;51.190;6.820;2023-02-28T13:31:19;5.17;;;2.90;;
10275;SDS011;5183;51.190;6.820;2023-02-28T13:34:05;3.92;;;3.00;;
10275;SDS011;5183;51.190;6.820;2023-02-28T13:36:40;3.30;;;2.80;;
10275;SDS011;5183;51.190;6.820;2023-02-28T13:42:23;4.23;;;3.10;;
10275;SDS011;5183;51.190;6.820;2023-02-28T13:45:19;5.33;;;2.97;;
10275;SDS011;5183;51.190;6.820;2023-02-28T13:47:52;4.18;;;3.20;;
10275;SDS011;5183;51.190;6.820;2023-02-28T13:50:29;4.10;;;3.07;;
10275;SDS011;5183;51.190;6.820;2023-02-28T13:56:17;4.25;;;3.35;;
10275;SDS011;5183;51.190;6.820;2023-02-28T13:58:53;3.57;;;3.27;;
10275;SDS011;5183;51.190;6.820;2023-02-28T14:01:34;5.20;;;3.63;;
10275;SDS011;5183;51.190;6.820;2023-02-28T14:04:39;3.30;;;3.00;;
10275;SDS011;5183;51.190;6.820;2023-02-28T14:07:25;3.73;;;3.20;;
10275;SDS011;5183;51.190;6.820;2023-02-28T14:09:56;4.33;;;3.27;;
10275;SDS011;5183;51.190;6.820;2023-02-28T14:15:55;3.67;;;3.17;;
10275;SDS011;5183;51.190;6.820;2023-02-28T14:18:27;3.93;;;3.33;;
10275;SDS011;5183;51.190;6.820;2023-02-28T14:20:59;3.40;;;3.10;;
10275;SDS011;5183;51.190;6.820;2023-02-28T14:23:44;3.40;;;3.10;;
10275;SDS011;5183;51.190;6.820;2023-02-28T14:26:30;4.13;;;3.10;;
10275;SDS011;5183;51.190;6.820;2023-02-28T14:29:10;4.37;;;3.30;;
10275;SDS011;5183;51.190;6.820;2023-02-28T14:31:53;4.00;;;3.27;;
10275;SDS011;5183;51.190;6.820;2023-02-28T14:34:29;4.70;;;3.30;;
10275;SDS011;5183;51.190;6.820;2023-02-28T14:37:04;3.30;;;3.00;;
10275;SDS011;5183;51.190;6.820;2023-02-28T14:39:32;3.97;;;3.33;;
10275;SDS011;5183;51.190;6.820;2023-02-28T14:42:01;3.47;;;3.17;;
10275;SDS011;5183;51.190;6.820;2023-02-28T14:44:30;4.03;;;3.40;;
10275;SDS011;5183;51.190;6.820;2023-02-28T14:46:58;3.73;;;3.37;;
10275;SDS011;5183;51.190;6.820;2023-02-28T14:49:30;4.67;;;3.50;;
10275;SDS011;5183;51.190;6.820;2023-02-28T14:52:02;5.60;;;3.57;;
10275;SDS011;5183;51.190;6.820;2023-02-28T14:54:37;4.93;;;3.50;;
10275;SDS011;5183;51.190;6.820;2023-02-28T14:57:05;6.83;;;3.27;;
10275;SDS011;5183;51.190;6.820;2023-02-28T14:59:33;4.53;;;3.30;;
10275;SDS011;5183;51.190;6.820;2023-02-28T15:02:15;4.20;;;3.67;;
10275;SDS011;5183;51.190;6.820;2023-02-28T15:04:43;3.60;;;3.30;;
10275;SDS011;5183;51.190;6.820;2023-02-28T15:07:19;3.83;;;3.43;;
10275;SDS011;5183;51.190;6.820;2023-02-28T15:10:06;4.90;;;3.10;;
10275;SDS011;5183;51.190;6.820;2023-02-28T15:12:37;4.03;;;3.10;;
10275;SDS011;5183;51.190;6.820;2023-02-28T15:15:13;3.70;;;3.40;;
10275;SDS011;5183;51.190;6.820;2023-02-28T15:17:41;3.93;;;3.53;;
10275;SDS011;5183;51.190;6.820;2023-02-28T15:20:12;10.67;;;3.87;;
10275;SDS011;5183;51.190;6.820;2023-02-28T15:22:42;3.70;;;3.40;;
10275;SDS011;5183;51.190;6.820;2023-02-28T15:25:13;4.33;;;3.43;;
10275;SDS011;5183;51.190;6.820;2023-02-28T15:27:45;4.30;;;3.60;;
10275;SDS011;5183;51.190;6.820;2023-02-28T15:30:15;5.57;;;3.33;;
10275;SDS011;5183;51.190;6.820;2023-02-28T15:32:44;3.80;;;3.50;;
10275;SDS011;5183;51.190;6.820;2023-02-28T15:35:29;4.80;;;3.60;;
10275;SDS011;5183;51.190;6.820;2023-02-28T15:38:01;7.47;;;3.30;;
10275;SDS011;5183;51.190;6.820;2023-02-28T15:40:35;6.00;;;4.17;;
10275;SDS011;5183;51.190;6.820;2023-02-28T15:43:05;3.87;;;3.47;;